createdAt,value
2017-12-06T00:00:52.764Z,3.33
2017-12-06T00:03:21.057Z,4.93
2017-12-06T00:05:49.374Z,3.77
2017-12-06T00:08:17.664Z,3.07
2017-12-06T00:10:45.985Z,2.30
2017-12-06T00:13:19.820Z,4.60
2017-12-06T00:15:48.108Z,2.12
2017-12-06T00:18:16.397Z,5.03
2017-12-06T00:20:44.770Z,4.37
2017-12-06T00:23:13.004Z,2.87
2017-12-06T00:25:41.293Z,2.60
2017-12-06T00:28:09.581Z,2.83
2017-12-06T00:30:37.872Z,3.57
2017-12-06T00:33:06.930Z,3.07
2017-12-06T00:35:35.792Z,3.13
2017-12-06T00:38:04.098Z,5.15
2017-12-06T00:40:32.377Z,4.40
2017-12-06T00:43:00.663Z,4.47
2017-12-06T00:45:28.941Z,4.50
2017-12-06T00:47:57.232Z,5.80
2017-12-06T00:50:25.517Z,4.50
2017-12-06T00:52:54.485Z,6.05
2017-12-06T00:55:22.769Z,5.30
2017-12-06T00:57:51.057Z,4.30
2017-12-06T01:00:20.137Z,5.03
2017-12-06T01:02:48.429Z,4.17
2017-12-06T01:05:17.501Z,7.37
2017-12-06T01:07:45.790Z,4.97
2017-12-06T01:10:14.084Z,4.43
2017-12-06T01:12:43.137Z,4.10
2017-12-06T01:15:11.429Z,5.83
2017-12-06T01:17:39.713Z,4.23
2017-12-06T01:20:08.000Z,5.15
2017-12-06T01:22:37.044Z,5.50
2017-12-06T01:25:05.346Z,5.23
2017-12-06T01:27:33.629Z,3.97
2017-12-06T01:30:01.908Z,4.07
2017-12-06T01:32:30.198Z,4.43
2017-12-06T01:34:58.492Z,4.25
2017-12-06T01:37:27.544Z,4.93
2017-12-06T01:39:55.829Z,4.53
2017-12-06T01:42:24.138Z,4.35
2017-12-06T01:44:52.425Z,4.63
2017-12-06T01:47:20.721Z,4.70
2017-12-06T01:49:49.013Z,7.33
2017-12-06T01:52:17.298Z,8.90
2017-12-06T01:54:45.603Z,4.70
2017-12-06T01:57:13.900Z,4.37
2017-12-06T01:59:42.961Z,5.93
2017-12-06T02:02:11.249Z,5.30
2017-12-06T02:04:39.541Z,4.20
2017-12-06T02:07:07.845Z,5.13
2017-12-06T02:09:36.188Z,7.15
2017-12-06T02:12:04.472Z,6.90
2017-12-06T02:14:33.528Z,6.23
2017-12-06T02:17:01.808Z,7.70
2017-12-06T02:19:30.100Z,15.57
2017-12-06T02:21:58.380Z,5.70
2017-12-06T02:24:26.660Z,6.47
2017-12-06T02:26:55.711Z,7.90
2017-12-06T02:29:24.002Z,6.53
2017-12-06T02:31:52.286Z,7.13
2017-12-06T02:34:20.573Z,8.20
2017-12-06T02:36:48.861Z,8.50
2017-12-06T02:39:17.914Z,10.30
2017-12-06T02:42:03.876Z,9.05
2017-12-06T02:47:47.086Z,8.63
2017-12-06T02:50:15.381Z,8.57
2017-12-06T02:52:44.437Z,7.73
2017-12-06T02:55:12.751Z,10.87
2017-12-06T02:57:41.032Z,9.90
2017-12-06T03:00:09.323Z,7.10
2017-12-06T03:02:37.636Z,10.67
2017-12-06T03:05:05.923Z,8.57
2017-12-06T03:07:34.209Z,10.00
2017-12-06T03:10:02.497Z,8.50
2017-12-06T03:12:31.333Z,8.53
2017-12-06T03:14:59.613Z,9.32
2017-12-06T03:17:27.887Z,7.00
2017-12-06T03:19:56.175Z,5.47
2017-12-06T03:22:24.473Z,9.20
2017-12-06T03:24:53.720Z,12.00
2017-12-06T03:27:22.009Z,9.13
2017-12-06T03:29:50.289Z,8.60
2017-12-06T03:32:18.591Z,7.63
2017-12-06T03:34:46.896Z,6.80
2017-12-06T03:37:15.189Z,10.30
2017-12-06T03:39:43.482Z,8.40
2017-12-06T03:42:11.776Z,7.80
2017-12-06T03:44:40.061Z,8.97
2017-12-06T03:47:08.369Z,9.50
2017-12-06T03:49:36.653Z,12.90
2017-12-06T03:52:05.705Z,5.87
2017-12-06T03:54:33.992Z,6.50
2017-12-06T03:57:02.274Z,7.40
2017-12-06T03:59:30.560Z,6.00
2017-12-06T04:01:58.849Z,8.97
2017-12-06T04:04:27.143Z,7.30
2017-12-06T04:06:55.417Z,8.17
2017-12-06T04:09:25.368Z,7.30
2017-12-06T04:11:53.661Z,6.47
2017-12-06T04:14:21.949Z,8.43
2017-12-06T04:16:50.229Z,9.05
2017-12-06T04:19:18.533Z,13.00
2017-12-06T04:21:46.846Z,7.17
2017-12-06T04:24:15.128Z,6.27
2017-12-06T04:26:44.356Z,9.90
2017-12-06T04:29:12.648Z,8.03
2017-12-06T04:31:40.932Z,9.20
2017-12-06T04:34:09.989Z,10.93
2017-12-06T04:36:38.276Z,9.00
2017-12-06T04:39:06.560Z,8.10
2017-12-06T04:41:34.855Z,7.47
2017-12-06T04:44:03.170Z,10.50
2017-12-06T04:46:31.471Z,9.43
2017-12-06T04:48:59.752Z,7.70
2017-12-06T04:51:28.028Z,7.50
2017-12-06T04:53:56.340Z,9.52
2017-12-06T04:56:25.481Z,7.73
2017-12-06T04:58:54.361Z,9.25
2017-12-06T05:01:22.640Z,7.30
2017-12-06T05:03:50.923Z,8.47
2017-12-06T05:06:19.229Z,9.53
2017-12-06T05:08:47.513Z,8.70
2017-12-06T05:11:15.808Z,10.23
2017-12-06T05:13:44.105Z,11.20
2017-12-06T05:16:12.406Z,10.63
2017-12-06T05:18:40.680Z,8.33
2017-12-06T05:21:09.007Z,8.50
2017-12-06T05:23:37.273Z,9.60
2017-12-06T05:26:05.568Z,10.10
2017-12-06T05:28:33.875Z,13.37
2017-12-06T05:31:02.162Z,9.18
2017-12-06T05:33:30.440Z,11.70
2017-12-06T05:35:58.721Z,8.93
2017-12-06T05:38:27.000Z,9.55
2017-12-06T05:40:56.832Z,11.43
2017-12-06T05:43:25.108Z,12.13
2017-12-06T05:45:53.880Z,10.40
2017-12-06T05:48:22.164Z,12.37
2017-12-06T05:50:50.500Z,10.03
2017-12-06T05:53:18.797Z,11.63
2017-12-06T05:55:47.077Z,9.25
2017-12-06T05:58:15.395Z,7.43
2017-12-06T06:00:43.677Z,8.07
2017-12-06T06:03:11.973Z,8.27
2017-12-06T06:05:40.277Z,9.60
2017-12-06T06:08:08.561Z,9.53
2017-12-06T06:10:36.849Z,8.70
2017-12-06T06:13:05.132Z,11.00
2017-12-06T06:15:33.414Z,9.40
2017-12-06T06:18:01.697Z,9.70
2017-12-06T06:20:29.980Z,10.90
2017-12-06T06:22:58.326Z,10.18
2017-12-06T06:25:26.600Z,8.47
2017-12-06T06:27:54.881Z,9.27
2017-12-06T06:30:23.181Z,7.97
2017-12-06T06:32:51.466Z,7.83
2017-12-06T06:35:19.756Z,8.10
2017-12-06T06:37:48.050Z,6.85
2017-12-06T06:40:16.336Z,6.53
2017-12-06T06:42:44.661Z,7.60
2017-12-06T06:45:12.960Z,9.48
2017-12-06T06:47:41.262Z,7.20
2017-12-06T06:50:09.542Z,8.57
2017-12-06T06:52:37.838Z,7.97
2017-12-06T06:55:06.882Z,8.27
2017-12-06T06:57:35.942Z,6.90
2017-12-06T07:00:04.248Z,6.33
2017-12-06T07:02:33.309Z,7.43
2017-12-06T07:05:01.584Z,7.00
2017-12-06T07:07:29.872Z,7.67
2017-12-06T07:09:58.152Z,6.07
2017-12-06T07:12:26.494Z,9.10
2017-12-06T07:14:54.797Z,9.07
2017-12-06T07:17:23.092Z,7.43
2017-12-06T07:19:51.441Z,6.87
2017-12-06T07:22:19.713Z,6.70
2017-12-06T07:24:47.997Z,5.80
2017-12-06T07:27:16.335Z,8.63
2017-12-06T07:29:44.626Z,8.60
2017-12-06T07:32:13.079Z,6.90
2017-12-06T07:34:41.423Z,5.80
2017-12-06T07:37:09.718Z,6.90
2017-12-06T07:39:37.996Z,7.40
2017-12-06T07:42:07.044Z,6.50
2017-12-06T07:44:35.333Z,7.07
2017-12-06T07:47:03.617Z,6.13
2017-12-06T07:49:34.214Z,7.40
2017-12-06T07:52:02.496Z,5.87
2017-12-06T07:54:30.789Z,7.80
2017-12-06T07:56:59.089Z,5.82
2017-12-06T07:59:27.385Z,5.40
2017-12-06T08:01:55.683Z,5.83
2017-12-06T08:04:23.985Z,4.70
2017-12-06T08:06:52.291Z,5.73
2017-12-06T08:09:20.582Z,6.45
2017-12-06T08:11:48.874Z,6.40
2017-12-06T08:14:17.162Z,6.25
2017-12-06T08:16:46.213Z,6.40
2017-12-06T08:19:14.512Z,20.52
2017-12-06T08:21:43.572Z,5.80
2017-12-06T08:24:11.844Z,4.50
2017-12-06T08:26:40.138Z,5.53
2017-12-06T08:29:08.429Z,6.63
2017-12-06T08:31:36.725Z,5.00
2017-12-06T08:34:05.814Z,4.40
2017-12-06T08:36:34.095Z,4.20
2017-12-06T08:39:02.397Z,4.60
2017-12-06T08:41:30.701Z,4.53
2017-12-06T08:43:58.988Z,5.93
2017-12-06T08:46:27.296Z,5.87
2017-12-06T08:48:56.349Z,3.90
2017-12-06T08:51:24.633Z,4.23
2017-12-06T08:53:52.920Z,2.77
2017-12-06T08:56:21.220Z,4.03
2017-12-06T08:58:49.521Z,4.53
2017-12-06T09:01:17.825Z,6.43
2017-12-06T09:03:46.111Z,6.30
2017-12-06T09:06:14.396Z,5.30
2017-12-06T09:08:42.701Z,3.90
2017-12-06T09:11:11.773Z,7.18
2017-12-06T09:13:40.055Z,6.97
2017-12-06T09:16:08.327Z,4.87
2017-12-06T09:18:36.618Z,4.60
2017-12-06T09:21:06.894Z,5.80
2017-12-06T09:23:35.173Z,4.67
2017-12-06T09:26:03.452Z,4.23
2017-12-06T09:28:31.744Z,3.80
2017-12-06T09:31:00.083Z,4.17
2017-12-06T09:33:28.372Z,7.23
2017-12-06T09:35:56.672Z,5.33
2017-12-06T09:38:24.946Z,5.40
2017-12-06T09:40:53.225Z,4.30
2017-12-06T09:43:21.889Z,3.45
2017-12-06T09:45:50.198Z,3.43
2017-12-06T09:48:20.091Z,5.00
2017-12-06T09:50:49.669Z,5.40
2017-12-06T09:53:17.965Z,3.70
2017-12-06T09:55:46.262Z,3.70
2017-12-06T09:58:14.550Z,4.50
2017-12-06T10:00:42.850Z,5.00
2017-12-06T10:03:12.029Z,5.13
2017-12-06T10:05:40.316Z,5.37
2017-12-06T10:08:09.369Z,3.47
2017-12-06T10:10:37.661Z,6.03
2017-12-06T10:13:05.937Z,3.93
2017-12-06T10:15:34.220Z,3.90
2017-12-06T10:18:02.517Z,4.03
2017-12-06T10:20:31.560Z,4.70
2017-12-06T10:22:59.835Z,4.73
2017-12-06T10:25:28.116Z,5.30
2017-12-06T10:27:56.410Z,4.10
2017-12-06T10:30:24.697Z,5.23
2017-12-06T10:32:52.969Z,3.57
2017-12-06T10:35:21.249Z,3.65
2017-12-06T10:37:49.532Z,3.20
2017-12-06T10:40:17.809Z,6.20
2017-12-06T10:42:46.100Z,5.40
2017-12-06T10:45:14.393Z,4.27
2017-12-06T10:47:42.671Z,3.70
2017-12-06T10:50:10.959Z,3.63
2017-12-06T10:52:39.429Z,3.90
2017-12-06T10:55:07.715Z,5.00
2017-12-06T10:57:35.985Z,3.87
2017-12-06T11:00:04.268Z,3.03
2017-12-06T11:02:32.563Z,4.53
2017-12-06T11:05:00.853Z,3.10
2017-12-06T11:07:29.133Z,3.05
2017-12-06T11:09:57.422Z,3.57
2017-12-06T11:12:25.984Z,11.10
2017-12-06T11:14:54.256Z,4.13
2017-12-06T11:17:22.536Z,3.03
2017-12-06T11:19:51.575Z,4.03
2017-12-06T11:22:19.857Z,3.60
2017-12-06T11:24:48.132Z,4.07
2017-12-06T11:27:17.787Z,3.80
2017-12-06T11:29:46.077Z,3.40
2017-12-06T11:32:14.369Z,6.20
2017-12-06T11:34:42.660Z,2.80
2017-12-06T11:37:11.713Z,4.63
2017-12-06T11:39:39.998Z,4.57
2017-12-06T11:42:08.308Z,5.33
2017-12-06T11:44:37.344Z,4.10
2017-12-06T11:47:05.642Z,3.13
2017-12-06T11:49:33.924Z,2.90
2017-12-06T11:52:02.205Z,3.30
2017-12-06T11:54:30.488Z,3.37
2017-12-06T11:56:58.784Z,2.47
2017-12-06T11:59:27.073Z,4.65
2017-12-06T12:01:55.364Z,3.83
2017-12-06T12:04:23.669Z,4.13
2017-12-06T12:06:51.950Z,3.50
2017-12-06T12:09:20.232Z,3.30
2017-12-06T12:11:48.509Z,4.97
2017-12-06T12:14:16.792Z,6.00
2017-12-06T12:16:45.480Z,4.22
2017-12-06T12:19:13.768Z,4.10
2017-12-06T12:21:42.078Z,7.20
2017-12-06T12:24:10.375Z,4.40
2017-12-06T12:26:38.689Z,3.07
2017-12-06T12:29:06.980Z,2.80
2017-12-06T12:31:35.302Z,4.60
2017-12-06T12:34:03.581Z,3.03
2017-12-06T12:36:31.865Z,4.03
2017-12-06T12:39:00.144Z,4.12
2017-12-06T12:41:28.427Z,2.80
2017-12-06T12:43:56.729Z,5.00
2017-12-06T12:46:25.581Z,5.10
2017-12-06T12:48:53.857Z,4.97
2017-12-06T12:51:22.136Z,4.95
2017-12-06T12:53:50.413Z,4.03
2017-12-06T12:56:18.721Z,2.40
2017-12-06T12:58:46.984Z,4.53
2017-12-06T13:01:16.210Z,3.80
2017-12-06T13:03:44.483Z,3.40
2017-12-06T13:06:12.790Z,2.97
2017-12-06T13:08:41.077Z,3.00
2017-12-06T13:11:09.386Z,3.17
2017-12-06T13:13:37.664Z,3.53
2017-12-06T13:16:05.964Z,3.30
2017-12-06T13:18:34.249Z,2.73
2017-12-06T13:21:03.081Z,2.40
2017-12-06T13:23:31.384Z,2.35
2017-12-06T13:25:59.701Z,3.80
2017-12-06T13:28:27.997Z,3.50
2017-12-06T13:30:56.281Z,2.10
2017-12-06T13:33:24.561Z,2.08
2017-12-06T13:35:52.842Z,2.20
2017-12-06T13:38:21.113Z,1.87
2017-12-06T13:40:49.447Z,2.40
2017-12-06T13:43:17.726Z,2.93
2017-12-06T13:45:46.040Z,2.23
2017-12-06T13:48:14.365Z,1.40
2017-12-06T13:50:42.660Z,1.93
2017-12-06T13:53:10.941Z,2.80
2017-12-06T13:55:39.259Z,1.90
2017-12-06T13:58:07.674Z,1.30
2017-12-06T14:00:35.984Z,1.37
2017-12-06T14:03:05.184Z,1.67
2017-12-06T14:05:33.921Z,1.10
2017-12-06T14:08:02.452Z,4.00
2017-12-06T14:10:31.049Z,1.80
2017-12-06T14:12:59.339Z,2.53
2017-12-06T14:15:27.684Z,3.50
2017-12-06T14:17:55.994Z,1.55
2017-12-06T14:20:24.297Z,2.53
2017-12-06T14:22:52.617Z,4.00
2017-12-06T14:25:21.110Z,1.77
2017-12-06T14:27:49.393Z,1.67
2017-12-06T14:30:18.845Z,2.67
2017-12-06T14:32:47.134Z,2.00
2017-12-06T14:35:15.440Z,1.73
2017-12-06T14:37:43.740Z,1.70
2017-12-06T14:40:15.626Z,1.83
2017-12-06T14:42:43.917Z,1.90
2017-12-06T14:45:12.201Z,2.00
2017-12-06T14:47:40.498Z,2.40
2017-12-06T14:50:08.786Z,1.40
2017-12-06T14:52:37.085Z,5.47
2017-12-06T14:55:05.412Z,2.80
2017-12-06T14:57:33.697Z,1.98
2017-12-06T15:00:01.987Z,1.20
2017-12-06T15:02:30.271Z,1.53
2017-12-06T15:04:58.553Z,2.13
2017-12-06T15:07:26.834Z,1.67
2017-12-06T15:09:55.136Z,1.10
2017-12-06T15:12:23.425Z,1.90
2017-12-06T15:14:51.725Z,1.60
2017-12-06T15:17:20.039Z,1.40
2017-12-06T15:19:48.349Z,3.00
2017-12-06T15:22:16.632Z,1.57
2017-12-06T15:24:44.922Z,2.10
2017-12-06T15:27:13.209Z,4.20
2017-12-06T15:29:42.270Z,1.50
2017-12-06T15:32:10.580Z,1.97
2017-12-06T15:34:39.637Z,29.40
2017-12-06T15:37:07.916Z,3.47
2017-12-06T15:39:36.204Z,1.65
2017-12-06T15:42:04.564Z,2.40
2017-12-06T15:44:32.841Z,2.20
2017-12-06T15:47:01.137Z,2.20
2017-12-06T15:49:29.417Z,2.17
2017-12-06T15:51:57.716Z,2.50
2017-12-06T15:54:26.760Z,8.30
2017-12-06T15:56:55.041Z,2.27
2017-12-06T15:59:23.371Z,4.93
2017-12-06T16:01:51.717Z,2.70
2017-12-06T16:04:20.093Z,2.20
2017-12-06T16:06:48.405Z,4.03
2017-12-06T16:09:16.708Z,2.90
2017-12-06T16:11:45.012Z,4.63
2017-12-06T16:14:13.302Z,2.87
2017-12-06T16:16:41.602Z,3.20
2017-12-06T16:19:09.893Z,2.00
2017-12-06T16:21:38.239Z,3.40
2017-12-06T16:24:06.541Z,2.77
2017-12-06T16:26:34.838Z,2.07
2017-12-06T16:29:03.156Z,3.33
2017-12-06T16:31:31.473Z,3.03
2017-12-06T16:33:59.784Z,2.53
2017-12-06T16:36:46.292Z,2.00
2017-12-06T16:39:14.569Z,2.30
2017-12-06T16:41:42.858Z,2.00
2017-12-06T16:44:11.144Z,1.98
2017-12-06T16:46:40.928Z,3.43
2017-12-06T16:49:09.210Z,1.70
2017-12-06T16:51:37.528Z,2.97
2017-12-06T16:54:05.829Z,1.67
2017-12-06T16:56:34.119Z,2.50
2017-12-06T16:59:02.401Z,1.60
2017-12-06T17:01:30.693Z,3.35
2017-12-06T17:03:58.977Z,1.50
2017-12-06T17:06:27.305Z,1.58
2017-12-06T17:08:55.606Z,2.67
2017-12-06T17:11:23.893Z,2.00
2017-12-06T17:13:52.181Z,2.43
2017-12-06T17:16:20.469Z,1.47
2017-12-06T17:18:48.749Z,1.70
2017-12-06T17:21:17.033Z,2.50
2017-12-06T17:23:45.328Z,2.63
2017-12-06T17:26:13.700Z,1.50
2017-12-06T17:31:51.577Z,2.40
2017-12-06T17:34:19.873Z,2.07
2017-12-06T17:36:48.219Z,1.90
2017-12-06T17:39:17.526Z,1.93
2017-12-06T17:41:46.877Z,2.33
2017-12-06T17:44:15.230Z,3.10
2017-12-06T17:46:43.722Z,4.40
2017-12-06T17:49:12.562Z,1.70
2017-12-06T17:51:40.955Z,2.87
2017-12-06T17:54:09.539Z,2.80
2017-12-06T17:56:38.157Z,3.27
2017-12-06T17:59:07.057Z,5.07
2017-12-06T18:01:35.545Z,5.00
2017-12-06T18:04:04.236Z,3.83
2017-12-06T18:06:33.058Z,5.30
2017-12-06T18:09:02.044Z,3.50
2017-12-06T18:11:32.229Z,3.10
2017-12-06T18:14:02.999Z,4.40
2017-12-06T18:16:32.572Z,6.90
2017-12-06T18:19:04.346Z,5.53
2017-12-06T18:21:34.290Z,4.90
2017-12-06T18:24:04.194Z,4.40
2017-12-06T18:26:34.956Z,5.40
2017-12-06T18:29:04.946Z,5.10
2017-12-06T18:31:35.606Z,3.60
2017-12-06T18:34:05.594Z,3.73
2017-12-06T18:36:35.376Z,6.13
2017-12-06T18:39:05.389Z,11.03
2017-12-06T18:41:35.132Z,6.80
2017-12-06T18:44:05.649Z,5.03
2017-12-06T18:46:36.311Z,3.27
2017-12-06T18:49:06.108Z,5.53
2017-12-06T18:51:36.658Z,4.07
2017-12-06T18:54:06.460Z,4.40
2017-12-06T18:56:36.414Z,4.03
2017-12-06T18:59:06.304Z,5.67
2017-12-06T19:01:37.850Z,6.53
2017-12-06T19:04:08.084Z,4.47
2017-12-06T19:06:37.976Z,6.00
2017-12-06T19:09:07.931Z,7.03
2017-12-06T19:11:37.843Z,5.28
2017-12-06T19:14:07.713Z,7.40
2017-12-06T19:16:38.114Z,4.28
2017-12-06T19:19:21.355Z,5.40
2017-12-06T19:21:52.035Z,5.87
2017-12-06T19:24:21.804Z,12.27
2017-12-06T19:26:52.386Z,6.65
2017-12-06T19:29:22.218Z,7.47
2017-12-06T19:31:52.068Z,5.73
2017-12-06T19:34:21.857Z,8.00
2017-12-06T19:36:51.679Z,9.00
2017-12-06T19:39:22.286Z,8.75
2017-12-06T19:41:52.965Z,11.18
2017-12-06T19:44:23.012Z,10.70
2017-12-06T19:46:52.932Z,7.70
2017-12-06T19:49:22.838Z,10.70
2017-12-06T19:51:52.687Z,11.60
2017-12-06T19:54:23.497Z,11.37
2017-12-06T19:56:53.369Z,8.93
2017-12-06T19:59:23.300Z,10.03
2017-12-06T20:01:53.299Z,14.32
2017-12-06T20:04:24.026Z,12.60
2017-12-06T20:06:53.988Z,9.70
2017-12-06T20:09:23.860Z,10.83
2017-12-06T20:11:53.790Z,10.30
2017-12-06T20:14:23.680Z,15.77
2017-12-06T20:16:54.238Z,10.93
2017-12-06T20:19:24.036Z,12.80
2017-12-06T20:21:53.968Z,14.10
2017-12-06T20:24:23.788Z,16.70
2017-12-06T20:26:54.257Z,12.68
2017-12-06T20:29:24.227Z,16.03
2017-12-06T20:31:54.110Z,17.60
2017-12-06T20:34:24.434Z,16.30
2017-12-06T20:36:54.359Z,19.07
2017-12-06T20:39:24.333Z,20.20
2017-12-06T20:41:54.786Z,15.35
2017-12-06T20:44:24.648Z,13.00
2017-12-06T20:46:55.229Z,12.65
2017-12-06T20:49:25.511Z,15.20
2017-12-06T20:51:55.513Z,15.20
2017-12-06T20:54:26.322Z,13.33
2017-12-06T20:56:56.163Z,13.60
2017-12-06T20:59:26.254Z,18.13
2017-12-06T21:01:56.192Z,15.00
2017-12-06T21:04:26.898Z,16.53
2017-12-06T21:06:56.941Z,15.67
2017-12-06T21:09:27.114Z,14.50
2017-12-06T21:11:57.234Z,14.73
2017-12-06T21:14:27.162Z,13.70
2017-12-06T21:16:57.855Z,15.30
2017-12-06T21:19:27.760Z,16.77
2017-12-06T21:21:57.661Z,15.90
2017-12-06T21:24:28.250Z,13.23
2017-12-06T21:36:38.119Z,14.80
2017-12-06T21:39:07.928Z,13.97
2017-12-06T21:41:37.732Z,14.83
2017-12-06T21:44:07.570Z,12.30
2017-12-06T21:46:37.435Z,18.87
2017-12-06T21:49:07.321Z,14.80
2017-12-06T21:51:37.640Z,14.00
2017-12-06T21:54:07.498Z,12.82
2017-12-06T21:56:38.431Z,15.80
2017-12-06T21:59:08.355Z,14.70
2017-12-06T22:01:38.156Z,15.33
2017-12-06T22:04:08.029Z,16.10
2017-12-06T22:06:38.474Z,19.23
2017-12-06T22:09:08.048Z,17.23
2017-12-06T22:11:37.393Z,13.00
2017-12-06T22:14:05.822Z,13.03
2017-12-06T22:16:34.490Z,12.97
2017-12-06T22:19:02.825Z,13.17
2017-12-06T22:21:31.148Z,14.18
2017-12-06T22:23:59.453Z,15.80
2017-12-06T22:26:27.774Z,16.77
2017-12-06T22:28:56.065Z,15.73
2017-12-06T22:31:24.356Z,12.87
2017-12-06T22:33:52.630Z,14.87
2017-12-06T22:36:21.694Z,16.30
2017-12-06T22:38:49.970Z,18.93
2017-12-06T22:41:18.248Z,15.90
2017-12-06T22:43:47.886Z,15.68
2017-12-06T22:46:16.973Z,13.60
2017-12-06T22:48:45.284Z,12.80
2017-12-06T22:51:13.569Z,12.70
2017-12-06T22:53:41.856Z,15.57
2017-12-06T22:56:10.145Z,13.57
2017-12-06T22:58:38.433Z,13.20
2017-12-06T23:01:08.000Z,12.40
2017-12-06T23:03:36.281Z,14.10
2017-12-06T23:06:04.567Z,16.33
2017-12-06T23:08:32.862Z,14.00
2017-12-06T23:11:02.217Z,12.60
2017-12-06T23:13:30.501Z,14.57
2017-12-06T23:15:58.797Z,12.50
2017-12-06T23:18:27.076Z,13.43
2017-12-06T23:20:55.389Z,15.60
2017-12-06T23:23:23.683Z,13.40
2017-12-06T23:25:52.740Z,17.80
2017-12-06T23:28:21.023Z,13.35
2017-12-06T23:30:49.312Z,11.83
2017-12-06T23:33:17.606Z,13.50
2017-12-06T23:35:46.745Z,12.83
2017-12-06T23:38:15.037Z,13.20
2017-12-06T23:40:43.874Z,12.57
2017-12-06T23:43:12.157Z,12.87
2017-12-06T23:45:41.201Z,13.27
2017-12-06T23:48:09.493Z,12.77
2017-12-06T23:50:37.775Z,14.30
2017-12-06T23:53:06.089Z,14.67
2017-12-06T23:55:34.387Z,11.80
2017-12-06T23:58:02.666Z,12.40
